sensor_id;sensor_type;location;lat;lon;timestamp;temperature;humidity
64143;DHT22;50437;51.970;5.904;2023-01-30T00:00:48;4.90;99.90
64143;DHT22;50437;51.970;5.904;2023-01-30T00:03:32;4.90;99.90
64143;DHT22;50437;51.970;5.904;2023-01-30T00:06:04;4.90;99.90
64143;DHT22;50437;51.970;5.904;2023-01-30T00:08:55;4.80;99.90
64143;DHT22;50437;51.970;5.904;2023-01-30T00:11:24;4.90;99.90
64143;DHT22;50437;51.970;5.904;2023-01-30T00:14:01;4.90;99.90
64143;DHT22;50437;51.970;5.904;2023-01-30T00:16:39;4.90;99.90
64143;DHT22;50437;51.970;5.904;2023-01-30T00:19:15;4.90;99.90
64143;DHT22;50437;51.970;5.904;2023-01-30T00:21:54;4.90;99.90
64143;DHT22;50437;51.970;5.904;2023-01-30T00:24:36;4.90;99.90
64143;DHT22;50437;51.970;5.904;2023-01-30T00:30:04;5.00;99.90
64143;DHT22;50437;51.970;5.904;2023-01-30T00:32:38;5.10;99.90
64143;DHT22;50437;51.970;5.904;2023-01-30T00:35:14;5.00;99.90
64143;DHT22;50437;51.970;5.904;2023-01-30T00:40:49;5.10;99.90
64143;DHT22;50437;51.970;5.904;2023-01-30T00:47:02;5.10;99.90
64143;DHT22;50437;51.970;5.904;2023-01-30T00:49:45;5.10;99.90
64143;DHT22;50437;51.970;5.904;2023-01-30T00:52:17;5.10;99.90
64143;DHT22;50437;51.970;5.904;2023-01-30T00:54:52;5.20;99.90
64143;DHT22;50437;51.970;5.904;2023-01-30T00:57:21;5.20;99.90
64143;DHT22;50437;51.970;5.904;2023-01-30T00:59:52;5.20;99.90
64143;DHT22;50437;51.970;5.904;2023-01-30T01:02:26;5.10;99.90
64143;DHT22;50437;51.970;5.904;2023-01-30T01:05:19;5.20;99.90
64143;DHT22;50437;51.970;5.904;2023-01-30T01:08:13;5.20;99.90
64143;DHT22;50437;51.970;5.904;2023-01-30T01:10:40;5.30;99.90
64143;DHT22;50437;51.970;5.904;2023-01-30T01:13:09;5.30;99.90
64143;DHT22;50437;51.970;5.904;2023-01-30T01:15:49;5.40;99.90
64143;DHT22;50437;51.970;5.904;2023-01-30T01:18:24;5.30;99.90
64143;DHT22;50437;51.970;5.904;2023-01-30T01:21:20;5.40;99.90
64143;DHT22;50437;51.970;5.904;2023-01-30T01:24:45;5.40;99.90
64143;DHT22;50437;51.970;5.904;2023-01-30T01:30:54;5.40;99.90
64143;DHT22;50437;51.970;5.904;2023-01-30T01:37:01;5.50;99.90
64143;DHT22;50437;51.970;5.904;2023-01-30T01:45:50;5.50;99.90
64143;DHT22;50437;51.970;5.904;2023-01-30T01:48:18;5.50;99.90
64143;DHT22;50437;51.970;5.904;2023-01-30T01:51:12;5.40;99.90
64143;DHT22;50437;51.970;5.904;2023-01-30T01:53:43;5.50;99.90
64143;DHT22;50437;51.970;5.904;2023-01-30T01:56:17;5.50;99.90
64143;DHT22;50437;51.970;5.904;2023-01-30T01:58:49;5.50;99.90
64143;DHT22;50437;51.970;5.904;2023-01-30T02:01:18;5.50;99.90
64143;DHT22;50437;51.970;5.904;2023-01-30T02:03:57;5.50;99.90
64143;DHT22;50437;51.970;5.904;2023-01-30T02:06:38;5.50;99.90
64143;DHT22;50437;51.970;5.904;2023-01-30T02:09:06;5.50;99.90
64143;DHT22;50437;51.970;5.904;2023-01-30T02:11:51;5.50;99.90
64143;DHT22;50437;51.970;5.904;2023-01-30T02:14:34;5.50;99.90
64143;DHT22;50437;51.970;5.904;2023-01-30T02:23:23;5.60;99.90
64143;DHT22;50437;51.970;5.904;2023-01-30T02:26:27;5.60;99.90
64143;DHT22;50437;51.970;5.904;2023-01-30T02:31:51;5.70;99.90
64143;DHT22;50437;51.970;5.904;2023-01-30T02:37:12;5.70;99.90
64143;DHT22;50437;51.970;5.904;2023-01-30T02:39:55;5.70;99.90
64143;DHT22;50437;51.970;5.904;2023-01-30T02:44:58;5.80;99.90
64143;DHT22;50437;51.970;5.904;2023-01-30T02:50:12;5.80;99.90
64143;DHT22;50437;51.970;5.904;2023-01-30T02:52:41;5.80;99.90
64143;DHT22;50437;51.970;5.904;2023-01-30T02:55:26;5.90;99.90
64143;DHT22;50437;51.970;5.904;2023-01-30T02:57:53;5.90;99.90
64143;DHT22;50437;51.970;5.904;2023-01-30T03:05:52;6.00;99.90
64143;DHT22;50437;51.970;5.904;2023-01-30T03:08:24;6.10;99.90
64143;DHT22;50437;51.970;5.904;2023-01-30T03:11:06;6.10;99.90
64143;DHT22;50437;51.970;5.904;2023-01-30T03:16:20;6.10;99.90
64143;DHT22;50437;51.970;5.904;2023-01-30T03:18:47;6.10;99.90
64143;DHT22;50437;51.970;5.904;2023-01-30T03:21:16;6.10;99.90
64143;DHT22;50437;51.970;5.904;2023-01-30T03:23:43;6.20;99.90
64143;DHT22;50437;51.970;5.904;2023-01-30T03:26:19;6.10;99.90
64143;DHT22;50437;51.970;5.904;2023-01-30T03:28:49;6.10;99.90
64143;DHT22;50437;51.970;5.904;2023-01-30T03:31:15;6.10;99.90
64143;DHT22;50437;51.970;5.904;2023-01-30T03:33:44;6.10;99.90
64143;DHT22;50437;51.970;5.904;2023-01-30T03:36:11;6.10;99.90
64143;DHT22;50437;51.970;5.904;2023-01-30T03:38:40;6.10;99.90
64143;DHT22;50437;51.970;5.904;2023-01-30T03:41:06;6.20;99.90
64143;DHT22;50437;51.970;5.904;2023-01-30T03:43:33;6.10;99.90
64143;DHT22;50437;51.970;5.904;2023-01-30T03:46:01;6.20;99.90
64143;DHT22;50437;51.970;5.904;2023-01-30T03:48:28;6.20;99.90
64143;DHT22;50437;51.970;5.904;2023-01-30T03:50:55;6.20;99.90
64143;DHT22;50437;51.970;5.904;2023-01-30T03:53:21;6.20;99.90
64143;DHT22;50437;51.970;5.904;2023-01-30T03:55:48;6.20;99.90
64143;DHT22;50437;51.970;5.904;2023-01-30T03:58:16;6.20;99.90
64143;DHT22;50437;51.970;5.904;2023-01-30T04:00:42;6.30;99.90
64143;DHT22;50437;51.970;5.904;2023-01-30T04:03:08;6.20;99.90
64143;DHT22;50437;51.970;5.904;2023-01-30T04:05:37;6.20;99.90
64143;DHT22;50437;51.970;5.904;2023-01-30T04:08:06;6.20;99.90
64143;DHT22;50437;51.970;5.904;2023-01-30T04:10:33;6.30;99.90
64143;DHT22;50437;51.970;5.904;2023-01-30T04:12:59;6.20;99.90
64143;DHT22;50437;51.970;5.904;2023-01-30T04:15:25;6.20;99.90
64143;DHT22;50437;51.970;5.904;2023-01-30T04:18:21;6.40;99.90
64143;DHT22;50437;51.970;5.904;2023-01-30T04:20:58;6.30;99.90
64143;DHT22;50437;51.970;5.904;2023-01-30T04:23:31;6.30;99.90
64143;DHT22;50437;51.970;5.904;2023-01-30T04:25:57;6.30;99.90
64143;DHT22;50437;51.970;5.904;2023-01-30T04:28:27;6.30;99.90
64143;DHT22;50437;51.970;5.904;2023-01-30T04:30:54;6.40;99.90
64143;DHT22;50437;51.970;5.904;2023-01-30T04:33:39;6.40;99.90
64143;DHT22;50437;51.970;5.904;2023-01-30T04:36:08;6.40;99.90
64143;DHT22;50437;51.970;5.904;2023-01-30T04:38:42;6.40;99.90
64143;DHT22;50437;51.970;5.904;2023-01-30T04:41:08;6.50;99.90
64143;DHT22;50437;51.970;5.904;2023-01-30T04:43:38;6.50;99.90
64143;DHT22;50437;51.970;5.904;2023-01-30T04:46:30;6.50;99.90
64143;DHT22;50437;51.970;5.904;2023-01-30T04:48:56;6.50;99.90
64143;DHT22;50437;51.970;5.904;2023-01-30T04:51:22;6.50;99.90
64143;DHT22;50437;51.970;5.904;2023-01-30T04:53:48;6.50;99.90
64143;DHT22;50437;51.970;5.904;2023-01-30T04:56:14;6.50;99.90
64143;DHT22;50437;51.970;5.904;2023-01-30T04:58:41;6.50;99.90
64143;DHT22;50437;51.970;5.904;2023-01-30T05:01:21;6.50;99.90
64143;DHT22;50437;51.970;5.904;2023-01-30T05:03:51;6.50;99.90
64143;DHT22;50437;51.970;5.904;2023-01-30T05:06:18;6.50;99.90
64143;DHT22;50437;51.970;5.904;2023-01-30T05:08:48;6.50;99.90
64143;DHT22;50437;51.970;5.904;2023-01-30T05:11:14;6.60;99.90
64143;DHT22;50437;51.970;5.904;2023-01-30T05:13:40;6.60;99.90
64143;DHT22;50437;51.970;5.904;2023-01-30T05:16:12;6.60;99.90
64143;DHT22;50437;51.970;5.904;2023-01-30T05:18:38;6.60;99.90
64143;DHT22;50437;51.970;5.904;2023-01-30T05:21:14;6.60;99.90
64143;DHT22;50437;51.970;5.904;2023-01-30T05:23:41;6.50;99.90
64143;DHT22;50437;51.970;5.904;2023-01-30T05:26:07;6.60;99.90
64143;DHT22;50437;51.970;5.904;2023-01-30T05:28:33;6.60;99.90
64143;DHT22;50437;51.970;5.904;2023-01-30T05:31:03;6.60;99.90
64143;DHT22;50437;51.970;5.904;2023-01-30T05:33:29;6.70;99.90
64143;DHT22;50437;51.970;5.904;2023-01-30T05:35:55;6.70;99.90
64143;DHT22;50437;51.970;5.904;2023-01-30T05:38:22;6.70;99.90
64143;DHT22;50437;51.970;5.904;2023-01-30T05:41:01;6.70;99.90
64143;DHT22;50437;51.970;5.904;2023-01-30T05:43:28;6.70;99.90
64143;DHT22;50437;51.970;5.904;2023-01-30T05:45:54;6.80;99.90
64143;DHT22;50437;51.970;5.904;2023-01-30T05:48:21;6.70;99.90
64143;DHT22;50437;51.970;5.904;2023-01-30T05:50:51;6.70;99.90
64143;DHT22;50437;51.970;5.904;2023-01-30T05:53:17;6.80;99.90
64143;DHT22;50437;51.970;5.904;2023-01-30T05:55:43;6.80;99.90
64143;DHT22;50437;51.970;5.904;2023-01-30T05:58:12;6.90;99.90
64143;DHT22;50437;51.970;5.904;2023-01-30T06:00:38;6.90;99.90
64143;DHT22;50437;51.970;5.904;2023-01-30T06:03:04;7.00;99.90
64143;DHT22;50437;51.970;5.904;2023-01-30T06:05:30;6.90;99.90
64143;DHT22;50437;51.970;5.904;2023-01-30T06:07:56;6.90;99.90
64143;DHT22;50437;51.970;5.904;2023-01-30T06:10:22;6.80;99.90
64143;DHT22;50437;51.970;5.904;2023-01-30T06:12:48;6.70;99.90
64143;DHT22;50437;51.970;5.904;2023-01-30T06:15:14;6.70;99.90
64143;DHT22;50437;51.970;5.904;2023-01-30T06:17:43;6.60;99.90
64143;DHT22;50437;51.970;5.904;2023-01-30T06:20:09;6.80;99.90
64143;DHT22;50437;51.970;5.904;2023-01-30T06:22:36;6.70;99.90
64143;DHT22;50437;51.970;5.904;2023-01-30T06:25:02;6.60;99.90
64143;DHT22;50437;51.970;5.904;2023-01-30T06:27:28;6.60;99.90
64143;DHT22;50437;51.970;5.904;2023-01-30T06:29:54;6.60;99.90
64143;DHT22;50437;51.970;5.904;2023-01-30T06:32:20;6.60;99.90
64143;DHT22;50437;51.970;5.904;2023-01-30T06:34:46;6.60;99.90
64143;DHT22;50437;51.970;5.904;2023-01-30T06:37:12;6.60;99.90
64143;DHT22;50437;51.970;5.904;2023-01-30T06:39:38;6.60;99.90
64143;DHT22;50437;51.970;5.904;2023-01-30T06:42:04;6.50;99.90
64143;DHT22;50437;51.970;5.904;2023-01-30T06:44:29;6.50;99.90
64143;DHT22;50437;51.970;5.904;2023-01-30T06:46:55;6.50;99.90
64143;DHT22;50437;51.970;5.904;2023-01-30T06:49:21;6.40;99.90
64143;DHT22;50437;51.970;5.904;2023-01-30T06:51:47;6.40;99.90
64143;DHT22;50437;51.970;5.904;2023-01-30T06:54:13;6.30;99.90
64143;DHT22;50437;51.970;5.904;2023-01-30T06:56:39;6.30;99.90
64143;DHT22;50437;51.970;5.904;2023-01-30T06:59:05;6.20;99.90
64143;DHT22;50437;51.970;5.904;2023-01-30T07:01:31;6.20;99.90
64143;DHT22;50437;51.970;5.904;2023-01-30T07:03:58;6.20;99.90
64143;DHT22;50437;51.970;5.904;2023-01-30T07:06:26;6.10;99.90
64143;DHT22;50437;51.970;5.904;2023-01-30T07:08:52;6.10;99.90
64143;DHT22;50437;51.970;5.904;2023-01-30T07:11:20;6.00;99.90
64143;DHT22;50437;51.970;5.904;2023-01-30T07:13:46;6.00;99.90
64143;DHT22;50437;51.970;5.904;2023-01-30T07:16:12;6.00;99.90
64143;DHT22;50437;51.970;5.904;2023-01-30T07:18:38;5.90;99.90
64143;DHT22;50437;51.970;5.904;2023-01-30T07:21:04;5.90;99.90
64143;DHT22;50437;51.970;5.904;2023-01-30T07:23:30;5.80;99.90
64143;DHT22;50437;51.970;5.904;2023-01-30T07:25:56;5.90;99.90
64143;DHT22;50437;51.970;5.904;2023-01-30T07:28:22;5.90;99.90
64143;DHT22;50437;51.970;5.904;2023-01-30T07:30:48;5.90;99.90
64143;DHT22;50437;51.970;5.904;2023-01-30T07:33:17;5.90;99.90
64143;DHT22;50437;51.970;5.904;2023-01-30T07:35:44;5.80;99.90
64143;DHT22;50437;51.970;5.904;2023-01-30T07:38:10;5.80;99.90
64143;DHT22;50437;51.970;5.904;2023-01-30T07:40:36;5.70;99.90
64143;DHT22;50437;51.970;5.904;2023-01-30T07:43:06;5.80;99.90
64143;DHT22;50437;51.970;5.904;2023-01-30T07:45:36;5.80;99.90
64143;DHT22;50437;51.970;5.904;2023-01-30T07:48:03;5.80;99.90
64143;DHT22;50437;51.970;5.904;2023-01-30T07:50:29;5.80;99.90
64143;DHT22;50437;51.970;5.904;2023-01-30T07:52:57;5.70;99.90
64143;DHT22;50437;51.970;5.904;2023-01-30T07:55:23;5.60;99.90
64143;DHT22;50437;51.970;5.904;2023-01-30T07:57:49;5.70;99.90
64143;DHT22;50437;51.970;5.904;2023-01-30T08:00:15;5.60;99.90
64143;DHT22;50437;51.970;5.904;2023-01-30T08:02:41;5.70;99.90
64143;DHT22;50437;51.970;5.904;2023-01-30T08:05:07;5.70;99.90
64143;DHT22;50437;51.970;5.904;2023-01-30T08:07:33;5.60;99.90
64143;DHT22;50437;51.970;5.904;2023-01-30T08:09:59;5.60;99.90
64143;DHT22;50437;51.970;5.904;2023-01-30T08:12:25;5.60;99.90
64143;DHT22;50437;51.970;5.904;2023-01-30T08:14:51;5.60;99.90
64143;DHT22;50437;51.970;5.904;2023-01-30T08:17:17;5.70;99.90
64143;DHT22;50437;51.970;5.904;2023-01-30T08:19:43;5.70;99.90
64143;DHT22;50437;51.970;5.904;2023-01-30T08:22:09;5.70;99.90
64143;DHT22;50437;51.970;5.904;2023-01-30T08:24:35;5.80;99.90
64143;DHT22;50437;51.970;5.904;2023-01-30T08:27:01;5.80;99.90
64143;DHT22;50437;51.970;5.904;2023-01-30T08:29:28;5.80;99.90
64143;DHT22;50437;51.970;5.904;2023-01-30T08:31:57;5.90;99.90
64143;DHT22;50437;51.970;5.904;2023-01-30T08:34:23;5.90;99.90
64143;DHT22;50437;51.970;5.904;2023-01-30T08:36:49;6.00;99.90
64143;DHT22;50437;51.970;5.904;2023-01-30T08:39:15;6.00;99.90
64143;DHT22;50437;51.970;5.904;2023-01-30T08:41:41;6.00;99.90
64143;DHT22;50437;51.970;5.904;2023-01-30T08:44:08;6.00;99.90
64143;DHT22;50437;51.970;5.904;2023-01-30T08:46:34;6.10;99.90
64143;DHT22;50437;51.970;5.904;2023-01-30T08:49:00;6.10;99.90
64143;DHT22;50437;51.970;5.904;2023-01-30T08:51:26;6.20;99.90
64143;DHT22;50437;51.970;5.904;2023-01-30T08:53:52;6.30;99.90
64143;DHT22;50437;51.970;5.904;2023-01-30T08:56:18;6.20;99.90
64143;DHT22;50437;51.970;5.904;2023-01-30T08:58:44;6.20;99.90
64143;DHT22;50437;51.970;5.904;2023-01-30T09:01:11;6.30;99.90
64143;DHT22;50437;51.970;5.904;2023-01-30T09:03:37;6.40;99.90
64143;DHT22;50437;51.970;5.904;2023-01-30T09:06:03;6.40;99.90
64143;DHT22;50437;51.970;5.904;2023-01-30T09:08:29;6.60;99.90
64143;DHT22;50437;51.970;5.904;2023-01-30T09:10:59;6.80;99.90
64143;DHT22;50437;51.970;5.904;2023-01-30T09:13:25;6.90;99.90
64143;DHT22;50437;51.970;5.904;2023-01-30T09:15:52;6.90;99.90
64143;DHT22;50437;51.970;5.904;2023-01-30T09:18:18;6.90;99.90
64143;DHT22;50437;51.970;5.904;2023-01-30T09:20:44;6.90;99.90
64143;DHT22;50437;51.970;5.904;2023-01-30T09:23:10;6.90;99.90
64143;DHT22;50437;51.970;5.904;2023-01-30T09:25:39;6.90;99.90
64143;DHT22;50437;51.970;5.904;2023-01-30T09:28:06;6.90;99.90
64143;DHT22;50437;51.970;5.904;2023-01-30T09:30:32;6.90;99.90
64143;DHT22;50437;51.970;5.904;2023-01-30T09:32:58;6.90;99.90
64143;DHT22;50437;51.970;5.904;2023-01-30T09:35:24;6.90;99.90
64143;DHT22;50437;51.970;5.904;2023-01-30T09:37:51;7.00;99.90
64143;DHT22;50437;51.970;5.904;2023-01-30T09:40:21;7.00;99.90
64143;DHT22;50437;51.970;5.904;2023-01-30T09:45:25;7.00;99.90
64143;DHT22;50437;51.970;5.904;2023-01-30T09:48:05;6.90;99.90
64143;DHT22;50437;51.970;5.904;2023-01-30T09:53:20;6.90;99.90
64143;DHT22;50437;51.970;5.904;2023-01-30T09:55:49;6.90;99.90
64143;DHT22;50437;51.970;5.904;2023-01-30T09:58:26;7.00;99.90
64143;DHT22;50437;51.970;5.904;2023-01-30T10:01:00;7.00;99.90
64143;DHT22;50437;51.970;5.904;2023-01-30T10:03:35;7.10;99.90
64143;DHT22;50437;51.970;5.904;2023-01-30T10:06:09;7.10;99.90
64143;DHT22;50437;51.970;5.904;2023-01-30T10:16:27;7.30;99.90
64143;DHT22;50437;51.970;5.904;2023-01-30T10:21:49;7.50;99.90
64143;DHT22;50437;51.970;5.904;2023-01-30T10:24:19;7.40;99.90
64143;DHT22;50437;51.970;5.904;2023-01-30T10:26:49;7.30;99.90
64143;DHT22;50437;51.970;5.904;2023-01-30T10:29:17;7.20;99.90
64143;DHT22;50437;51.970;5.904;2023-01-30T10:31:49;7.20;99.90
64143;DHT22;50437;51.970;5.904;2023-01-30T10:34:30;7.20;99.90
64143;DHT22;50437;51.970;5.904;2023-01-30T10:36:59;7.20;99.90
64143;DHT22;50437;51.970;5.904;2023-01-30T10:42:37;7.20;99.90
64143;DHT22;50437;51.970;5.904;2023-01-30T10:44:53;7.10;99.90
64143;DHT22;50437;51.970;5.904;2023-01-30T10:50:17;7.10;99.90
64143;DHT22;50437;51.970;5.904;2023-01-30T10:55:29;7.30;99.90
64143;DHT22;50437;51.970;5.904;2023-01-30T11:00:49;7.40;99.90
64143;DHT22;50437;51.970;5.904;2023-01-30T11:03:23;7.40;99.90
64143;DHT22;50437;51.970;5.904;2023-01-30T11:05:51;7.30;99.90
64143;DHT22;50437;51.970;5.904;2023-01-30T11:08:19;7.40;99.90
64143;DHT22;50437;51.970;5.904;2023-01-30T11:10:46;7.40;99.90
64143;DHT22;50437;51.970;5.904;2023-01-30T11:13:13;7.50;99.90
64143;DHT22;50437;51.970;5.904;2023-01-30T11:15:42;7.50;99.90
64143;DHT22;50437;51.970;5.904;2023-01-30T11:18:09;7.90;99.90
64143;DHT22;50437;51.970;5.904;2023-01-30T11:20:39;8.30;99.90
64143;DHT22;50437;51.970;5.904;2023-01-30T11:23:06;8.60;99.90
64143;DHT22;50437;51.970;5.904;2023-01-30T11:25:45;8.80;99.90
64143;DHT22;50437;51.970;5.904;2023-01-30T11:28:12;8.70;99.90
64143;DHT22;50437;51.970;5.904;2023-01-30T11:30:40;8.50;99.90
64143;DHT22;50437;51.970;5.904;2023-01-30T11:33:14;8.10;99.90
64143;DHT22;50437;51.970;5.904;2023-01-30T11:35:50;8.20;99.90
64143;DHT22;50437;51.970;5.904;2023-01-30T11:38:19;8.70;99.90
64143;DHT22;50437;51.970;5.904;2023-01-30T11:40:46;8.90;99.90
64143;DHT22;50437;51.970;5.904;2023-01-30T11:43:13;8.80;99.90
64143;DHT22;50437;51.970;5.904;2023-01-30T11:45:40;8.90;99.90
64143;DHT22;50437;51.970;5.904;2023-01-30T11:48:19;8.80;99.90
64143;DHT22;50437;51.970;5.904;2023-01-30T11:50:47;8.80;99.90
64143;DHT22;50437;51.970;5.904;2023-01-30T11:56:13;8.90;99.90
64143;DHT22;50437;51.970;5.904;2023-01-30T11:58:40;8.80;99.90
64143;DHT22;50437;51.970;5.904;2023-01-30T12:01:10;8.70;99.90
64143;DHT22;50437;51.970;5.904;2023-01-30T12:03:44;9.00;99.90
64143;DHT22;50437;51.970;5.904;2023-01-30T12:06:19;9.40;99.90
64143;DHT22;50437;51.970;5.904;2023-01-30T12:08:46;9.70;99.90
64143;DHT22;50437;51.970;5.904;2023-01-30T12:11:23;9.60;99.90
64143;DHT22;50437;51.970;5.904;2023-01-30T12:13:49;9.30;99.90
64143;DHT22;50437;51.970;5.904;2023-01-30T12:16:30;8.80;99.90
64143;DHT22;50437;51.970;5.904;2023-01-30T12:19:22;8.60;99.90
64143;DHT22;50437;51.970;5.904;2023-01-30T12:24:47;8.20;99.90
64143;DHT22;50437;51.970;5.904;2023-01-30T12:27:18;8.30;99.90
64143;DHT22;50437;51.970;5.904;2023-01-30T12:29:53;8.20;99.90
64143;DHT22;50437;51.970;5.904;2023-01-30T12:32:24;8.30;99.90
64143;DHT22;50437;51.970;5.904;2023-01-30T12:34:51;8.10;99.90
64143;DHT22;50437;51.970;5.904;2023-01-30T12:37:40;8.10;99.90
64143;DHT22;50437;51.970;5.904;2023-01-30T12:58:09;8.40;99.90
64143;DHT22;50437;51.970;5.904;2023-01-30T13:03:18;8.30;99.90
64143;DHT22;50437;51.970;5.904;2023-01-30T13:05:50;8.30;99.90
64143;DHT22;50437;51.970;5.904;2023-01-30T13:10:47;8.30;99.90
64143;DHT22;50437;51.970;5.904;2023-01-30T13:15:52;8.20;99.90
64143;DHT22;50437;51.970;5.904;2023-01-30T13:18:24;8.10;99.90
64143;DHT22;50437;51.970;5.904;2023-01-30T13:23:26;8.10;99.90
64143;DHT22;50437;51.970;5.904;2023-01-30T13:26:11;8.10;99.90
64143;DHT22;50437;51.970;5.904;2023-01-30T13:28:39;8.10;99.90
64143;DHT22;50437;51.970;5.904;2023-01-30T13:31:08;8.00;99.90
64143;DHT22;50437;51.970;5.904;2023-01-30T13:33:36;7.90;99.90
64143;DHT22;50437;51.970;5.904;2023-01-30T13:38:30;7.80;99.90
64143;DHT22;50437;51.970;5.904;2023-01-30T13:40:58;7.90;99.90
64143;DHT22;50437;51.970;5.904;2023-01-30T13:43:26;7.90;99.90
64143;DHT22;50437;51.970;5.904;2023-01-30T13:45:54;7.90;99.90
64143;DHT22;50437;51.970;5.904;2023-01-30T13:48:37;8.00;99.90
64143;DHT22;50437;51.970;5.904;2023-01-30T13:56:16;7.90;99.90
64143;DHT22;50437;51.970;5.904;2023-01-30T13:59:02;7.90;99.90
64143;DHT22;50437;51.970;5.904;2023-01-30T14:04:41;7.90;99.90
64143;DHT22;50437;51.970;5.904;2023-01-30T14:09:33;8.00;99.90
64143;DHT22;50437;51.970;5.904;2023-01-30T14:12:00;7.90;99.90
64143;DHT22;50437;51.970;5.904;2023-01-30T14:14:30;7.90;99.90
64143;DHT22;50437;51.970;5.904;2023-01-30T14:17:10;7.90;99.90
64143;DHT22;50437;51.970;5.904;2023-01-30T14:19:38;7.90;99.90
64143;DHT22;50437;51.970;5.904;2023-01-30T14:22:22;7.90;99.90
64143;DHT22;50437;51.970;5.904;2023-01-30T14:27:36;8.10;99.90
64143;DHT22;50437;51.970;5.904;2023-01-30T14:32:56;8.10;99.90
64143;DHT22;50437;51.970;5.904;2023-01-30T14:35:23;8.00;99.90
64143;DHT22;50437;51.970;5.904;2023-01-30T14:40:45;8.00;99.90
64143;DHT22;50437;51.970;5.904;2023-01-30T14:54:01;7.90;99.90
64143;DHT22;50437;51.970;5.904;2023-01-30T15:01:54;7.90;99.90
64143;DHT22;50437;51.970;5.904;2023-01-30T15:04:21;7.90;99.90
64143;DHT22;50437;51.970;5.904;2023-01-30T15:06:48;7.90;99.90
64143;DHT22;50437;51.970;5.904;2023-01-30T15:09:18;7.80;99.90
64143;DHT22;50437;51.970;5.904;2023-01-30T15:11:46;7.70;99.90
64143;DHT22;50437;51.970;5.904;2023-01-30T15:14:20;7.80;99.90
64143;DHT22;50437;51.970;5.904;2023-01-30T15:16:56;7.70;99.90
64143;DHT22;50437;51.970;5.904;2023-01-30T15:23:00;7.70;99.90
64143;DHT22;50437;51.970;5.904;2023-01-30T15:30:14;7.70;99.90
64143;DHT22;50437;51.970;5.904;2023-01-30T15:32:44;7.70;99.90
64143;DHT22;50437;51.970;5.904;2023-01-30T15:35:58;7.60;99.90
64143;DHT22;50437;51.970;5.904;2023-01-30T15:38:29;7.70;99.90
64143;DHT22;50437;51.970;5.904;2023-01-30T15:41:04;7.60;99.90
64143;DHT22;50437;51.970;5.904;2023-01-30T15:46:14;7.60;99.90
64143;DHT22;50437;51.970;5.904;2023-01-30T15:51:41;7.70;99.90
64143;DHT22;50437;51.970;5.904;2023-01-30T15:54:12;7.60;99.90
64143;DHT22;50437;51.970;5.904;2023-01-30T15:56:46;7.60;99.90
64143;DHT22;50437;51.970;5.904;2023-01-30T15:59:26;7.50;99.90
64143;DHT22;50437;51.970;5.904;2023-01-30T16:01:58;7.50;99.90
64143;DHT22;50437;51.970;5.904;2023-01-30T16:04:27;7.50;99.90
64143;DHT22;50437;51.970;5.904;2023-01-30T16:07:12;7.50;99.90
64143;DHT22;50437;51.970;5.904;2023-01-30T16:10:09;7.50;99.90
64143;DHT22;50437;51.970;5.904;2023-01-30T16:12:39;7.40;99.90
64143;DHT22;50437;51.970;5.904;2023-01-30T16:15:21;7.40;99.90
64143;DHT22;50437;51.970;5.904;2023-01-30T16:17:59;7.40;99.90
64143;DHT22;50437;51.970;5.904;2023-01-30T16:20:50;7.30;99.90
64143;DHT22;50437;51.970;5.904;2023-01-30T16:23:34;7.30;99.90
64143;DHT22;50437;51.970;5.904;2023-01-30T16:26:32;7.30;99.90
64143;DHT22;50437;51.970;5.904;2023-01-30T16:29:34;7.20;99.90
64143;DHT22;50437;51.970;5.904;2023-01-30T16:32:12;7.10;99.90
64143;DHT22;50437;51.970;5.904;2023-01-30T16:34:39;7.00;99.90
64143;DHT22;50437;51.970;5.904;2023-01-30T16:47:02;6.90;99.90
64143;DHT22;50437;51.970;5.904;2023-01-30T16:52:17;6.70;99.90
64143;DHT22;50437;51.970;5.904;2023-01-30T16:55:06;6.80;99.90
64143;DHT22;50437;51.970;5.904;2023-01-30T16:57:38;6.70;99.90
64143;DHT22;50437;51.970;5.904;2023-01-30T17:00:31;6.70;99.90
64143;DHT22;50437;51.970;5.904;2023-01-30T17:02:55;6.60;99.90
64143;DHT22;50437;51.970;5.904;2023-01-30T17:05:36;6.50;99.90
64143;DHT22;50437;51.970;5.904;2023-01-30T17:14:24;6.20;99.90
64143;DHT22;50437;51.970;5.904;2023-01-30T17:17:06;6.20;99.90
64143;DHT22;50437;51.970;5.904;2023-01-30T17:19:40;6.20;99.90
64143;DHT22;50437;51.970;5.904;2023-01-30T17:22:50;6.20;99.90
64143;DHT22;50437;51.970;5.904;2023-01-30T17:25:45;6.20;99.90
64143;DHT22;50437;51.970;5.904;2023-01-30T17:28:17;6.10;99.90
64143;DHT22;50437;51.970;5.904;2023-01-30T17:30:58;6.10;99.90
64143;DHT22;50437;51.970;5.904;2023-01-30T17:33:29;6.20;99.90
64143;DHT22;50437;51.970;5.904;2023-01-30T17:36:46;6.10;99.90
64143;DHT22;50437;51.970;5.904;2023-01-30T17:39:20;6.10;99.90
64143;DHT22;50437;51.970;5.904;2023-01-30T17:48:51;5.90;99.90
64143;DHT22;50437;51.970;5.904;2023-01-30T17:51:36;5.90;99.90
64143;DHT22;50437;51.970;5.904;2023-01-30T17:54:32;5.80;99.90
64143;DHT22;50437;51.970;5.904;2023-01-30T17:57:42;5.80;99.90
64143;DHT22;50437;51.970;5.904;2023-01-30T18:00:21;5.80;99.90
64143;DHT22;50437;51.970;5.904;2023-01-30T18:02:49;5.70;99.90
64143;DHT22;50437;51.970;5.904;2023-01-30T18:05:26;5.70;99.90
64143;DHT22;50437;51.970;5.904;2023-01-30T18:08:34;5.70;99.90
64143;DHT22;50437;51.970;5.904;2023-01-30T18:15:33;5.60;99.90
64143;DHT22;50437;51.970;5.904;2023-01-30T18:24:05;5.40;99.90
64143;DHT22;50437;51.970;5.904;2023-01-30T18:27:21;5.40;99.90
64143;DHT22;50437;51.970;5.904;2023-01-30T18:29:58;5.40;99.90
64143;DHT22;50437;51.970;5.904;2023-01-30T18:32:26;5.40;99.90
64143;DHT22;50437;51.970;5.904;2023-01-30T18:34:54;5.40;99.90
64143;DHT22;50437;51.970;5.904;2023-01-30T18:37:33;5.40;99.90
64143;DHT22;50437;51.970;5.904;2023-01-30T18:40:27;5.40;99.90
64143;DHT22;50437;51.970;5.904;2023-01-30T18:43:29;5.30;99.90
64143;DHT22;50437;51.970;5.904;2023-01-30T18:46:02;5.30;99.90
64143;DHT22;50437;51.970;5.904;2023-01-30T18:51:49;5.30;99.90
64143;DHT22;50437;51.970;5.904;2023-01-30T19:07:58;5.20;99.90
64143;DHT22;50437;51.970;5.904;2023-01-30T19:10:27;5.10;99.90
64143;DHT22;50437;51.970;5.904;2023-01-30T19:13:08;5.10;99.90
64143;DHT22;50437;51.970;5.904;2023-01-30T19:22:59;5.00;99.90
64143;DHT22;50437;51.970;5.904;2023-01-30T19:25:31;5.00;99.90
64143;DHT22;50437;51.970;5.904;2023-01-30T19:28:42;5.00;99.90
64143;DHT22;50437;51.970;5.904;2023-01-30T19:31:14;4.90;99.90
64143;DHT22;50437;51.970;5.904;2023-01-30T19:33:45;4.90;99.90
64143;DHT22;50437;51.970;5.904;2023-01-30T19:40:44;4.80;99.90
64143;DHT22;50437;51.970;5.904;2023-01-30T19:43:11;4.70;99.90
64143;DHT22;50437;51.970;5.904;2023-01-30T19:50:03;4.70;99.90
64143;DHT22;50437;51.970;5.904;2023-01-30T19:57:26;4.70;99.90
64143;DHT22;50437;51.970;5.904;2023-01-30T20:00:18;4.70;99.90
64143;DHT22;50437;51.970;5.904;2023-01-30T20:07:20;4.60;99.90
64143;DHT22;50437;51.970;5.904;2023-01-30T20:10:50;4.60;99.90
64143;DHT22;50437;51.970;5.904;2023-01-30T20:14:25;4.60;99.90
64143;DHT22;50437;51.970;5.904;2023-01-30T20:20:44;4.60;99.90
64143;DHT22;50437;51.970;5.904;2023-01-30T20:23:12;4.40;99.90